University, MS

4:54 PM CDT on May 24, 2015 (GMT -0500)
Bickerstaff Road / Belk Blvd | | Change Station
CLOSE
Current Station
Personal Weather Station
Location: Oxford, MS
Elevation: 440 ft
Nearby Weather Stations
Active Advisory: Tornado Watch

Elev 440 ft 34.35 °N, 89.52 °W | Updated 9 minutes ago

Mostly Cloudy
Mostly Cloudy
73.9 °F
Feels Like 72 °F
N
3.8
Wind Variable Wind from ESE

Today
High -- | Low -- °F
--% Chance of Precip.
Yesterday
High -- | Low -- °F
Precip. -- in
5:50 AM 7:59 PM
Waxing Crescent, 42% visible
Pressure 30.04 in
Visibility 4.0 miles
Clouds Scattered Clouds 200 ft
Scattered Clouds 4200 ft
Mostly Cloudy 10000 ft
Heat Index 72 °F
Dew Point 70 °F
Humidity 89%
Rainfall 0.69 in
Snow Depth Not available.
UV 3 out of 12
Pollen 6.60 out of 12
Air Quality Not available.
Flu Activity No Activity
METAR KUOX 242135Z AUTO 14007G14KT 4SM SCT002 SCT042 BKN100 21/20 A3004 RMK AO2 LTG DSNT ALQDS PWINO PNO

More Conditions Fewer Conditions

Pressure 30.04 in
Visibility 4.0 miles
Clouds Scattered Clouds 200 ft
Scattered Clouds 4200 ft
Mostly Cloudy 10000 ft
Heat Index 72 °F
Dew Point 70 °F
Humidity 89%
Rainfall 0.69 in
Snow Depth Not available.
UV 3 out of 12
Pollen 6.60 out of 12
Air Quality Not available.
Flu Activity No Activity
METAR KUOX 242135Z AUTO 14007G14KT 4SM SCT002 SCT042 BKN100 21/20 A3004 RMK AO2 LTG DSNT ALQDS PWINO PNO

More Conditions Fewer Conditions

10-Day Weather Forecast

Almanac

Astronomy

May. 24, 2015 Rise Set
Actual Time
Civil Twilight
Nautical Twilight
Astronomical Twilight
Moon
Length of Visible Light
Length of Day
Tomorrow will be .
, % of the Moon is Illuminated

Today's Extremes

State Highs State Lows

Community

WunderPhotos

Upload Photos

1,823,876 photos uploaded!

WunderBlogs® & News

Nearby

Air Quality

  Air Quality AQ Index Pollutant
Not available.

Snow Depth

Station Depth Elevation

Earthquake Activity

City Distance Mag. Time & Date
Minimum magnitude displayed is 2.5.

Coastal Water Temperatures

Place Temperature

Stations

Nearby Weather Stations

Station Location Temp. Windchill Dew Point Humidity Wind Precip. Elev Updated Type
                   
Tornado Watch
Statement as of 4:43 PM CDT on May 24, 2015

Tornado Watch 205 remains in effect until 1000 PM CDT for the
following locations

MS
. Mississippi counties included are

Alcorn Benton Calhoun
Chickasaw Coahoma DeSoto
Itawamba Lafayette Lee
Marshall Monroe Panola
Pontotoc Prentiss Quitman
Tallahatchie Tate Tippah
Tishomingo Tunica Union
Yalobusha